Time;durP1;ratioP1;P1;durP2;ratioP2;P2;SDS_P1;SDS_P2;PMS_P1;PMS_P2;Temp;Humidity;BMP_temperature;BMP_pressure;BME280_temperature;BME280_humidity;BME280_pressure;Samples;Min_cycle;Max_cycle;Signal;HPM_P1;HPM_P2
2021/05/03 00:01:53;;;;;;;5.37;4.40;;;2.70;99.90;;;;;;5054948;28;20279;-86
2021/05/03 00:04:19;;;;;;;8.03;4.63;;;2.60;99.90;;;;;;5071488;28;20189;-83
2021/05/03 00:06:44;;;;;;;5.82;4.82;;;2.60;99.90;;;;;;5072442;28;20200;-86
2021/05/03 00:09:10;;;;;;;5.97;4.97;;;2.50;99.90;;;;;;5071281;28;20172;-87
2021/05/03 00:11:36;;;;;;;5.97;4.93;;;2.60;99.90;;;;;;5054635;28;20246;-87
2021/05/03 00:14:02;;;;;;;5.43;4.50;;;2.60;99.90;;;;;;5054954;28;20218;-84
2021/05/03 00:16:28;;;;;;;6.75;4.95;;;2.50;99.90;;;;;;5074282;28;20546;-88
2021/05/03 00:18:53;;;;;;;4.57;4.03;;;2.60;99.90;;;;;;5075136;28;20218;-86
2021/05/03 00:21:19;;;;;;;5.90;4.10;;;2.60;99.90;;;;;;5076382;28;20256;-85
2021/05/03 00:23:45;;;;;;;4.47;3.93;;;2.60;99.90;;;;;;5076320;28;20693;-85
2021/05/03 00:26:11;;;;;;;4.73;4.10;;;2.60;99.90;;;;;;5076121;28;20188;-86
2021/05/03 00:28:38;;;;;;;8.70;5.15;;;2.50;99.90;;;;;;5075028;28;20577;-87
2021/05/03 00:31:04;;;;;;;6.55;4.20;;;2.50;99.90;;;;;;5076963;28;20275;-85
2021/05/03 00:33:31;;;;;;;5.25;4.45;;;2.50;99.90;;;;;;5077118;28;20172;-84
2021/05/03 00:35:57;;;;;;;7.85;4.15;;;2.40;99.90;;;;;;5081774;28;20185;-84
2021/05/03 00:38:22;;;;;;;10.13;5.90;;;2.40;99.90;;;;;;5068214;28;20244;-85
2021/05/03 00:40:48;;;;;;;5.10;4.17;;;2.30;99.90;;;;;;5074662;28;20716;-85
2021/05/03 00:43:18;;;;;;;6.10;4.37;;;2.30;99.90;;;;;;5074891;28;20201;-85
2021/05/03 00:45:44;;;;;;;7.65;4.90;;;2.30;99.90;;;;;;5074355;28;20197;-86
2021/05/03 00:48:10;;;;;;;6.23;5.00;;;2.20;99.90;;;;;;5074951;28;20182;-85
2021/05/03 00:50:37;;;;;;;6.90;4.77;;;2.20;99.90;;;;;;5075685;28;20548;-86
2021/05/03 00:53:06;;;;;;;6.85;4.68;;;2.20;99.90;;;;;;5058000;28;20422;-85
2021/05/03 00:55:32;;;;;;;7.45;5.25;;;2.10;99.90;;;;;;5074156;28;20267;-87
2021/05/03 00:57:58;;;;;;;5.70;4.73;;;2.10;99.90;;;;;;5058038;28;20649;-87
2021/05/03 01:00:26;;;;;;;5.50;4.20;;;2.00;99.90;;;;;;5075730;28;20419;-87
2021/05/03 01:02:51;;;;;;;6.63;4.95;;;2.00;99.90;;;;;;5074990;28;20533;-87
2021/05/03 01:05:19;;;;;;;6.50;4.67;;;2.00;99.90;;;;;;5075429;28;20177;-86
2021/05/03 01:07:45;;;;;;;8.30;5.57;;;1.90;99.90;;;;;;5075463;28;20188;-84
2021/05/03 01:10:11;;;;;;;6.78;4.50;;;1.80;99.90;;;;;;5057424;28;20235;-85
2021/05/03 01:12:38;;;;;;;6.85;4.70;;;1.80;99.90;;;;;;5074490;28;20521;-85
2021/05/03 01:15:09;;;;;;;5.72;4.93;;;1.70;99.90;;;;;;5073952;28;20189;-85
2021/05/03 01:17:36;;;;;;;8.07;4.97;;;1.70;99.90;;;;;;5075314;28;20541;-86
2021/05/03 01:20:15;;;;;;;7.35;4.65;;;1.70;99.90;;;;;;5057390;28;20534;-87
2021/05/03 01:22:41;;;;;;;7.13;4.90;;;1.70;99.90;;;;;;5057591;28;20188;-86
2021/05/03 01:25:09;;;;;;;7.82;4.75;;;1.70;99.90;;;;;;5075310;28;20173;-86
2021/05/03 01:27:36;;;;;;;7.78;4.90;;;1.60;99.90;;;;;;5074621;28;20524;-86
2021/05/03 01:30:04;;;;;;;5.35;4.38;;;1.60;99.90;;;;;;5075003;28;20196;-85
2021/05/03 01:32:30;;;;;;;8.15;4.18;;;1.60;99.90;;;;;;5057021;28;20184;-84
2021/05/03 01:34:56;;;;;;;6.57;4.53;;;1.60;99.90;;;;;;5073472;28;20180;-85
2021/05/03 01:37:23;;;;;;;5.85;4.88;;;1.50;99.90;;;;;;5073728;28;20540;-85
2021/05/03 01:39:48;;;;;;;5.38;4.45;;;1.40;99.90;;;;;;5056907;28;20191;-84
2021/05/03 01:42:14;;;;;;;12.67;7.30;;;1.40;99.90;;;;;;5074822;28;20258;-86
2021/05/03 01:44:40;;;;;;;6.97;4.53;;;1.50;99.90;;;;;;5056603;28;20173;-87
2021/05/03 01:47:06;;;;;;;11.85;5.43;;;1.40;99.90;;;;;;5074726;28;20180;-86
2021/05/03 01:49:32;;;;;;;7.57;5.38;;;1.40;99.90;;;;;;5073569;28;20180;-85
2021/05/03 01:51:58;;;;;;;5.80;5.07;;;1.40;99.90;;;;;;5057067;28;20279;-85
2021/05/03 01:54:24;;;;;;;7.85;4.70;;;1.30;99.90;;;;;;5073420;28;20251;-87
2021/05/03 01:56:50;;;;;;;5.77;4.53;;;1.30;99.90;;;;;;5073189;28;20267;-86
2021/05/03 01:59:16;;;;;;;6.10;4.13;;;1.20;99.90;;;;;;5074679;28;20782;-85
2021/05/03 02:01:41;;;;;;;6.17;4.93;;;1.20;99.90;;;;;;5074462;28;20184;-85
2021/05/03 02:04:08;;;;;;;7.83;4.67;;;1.20;99.90;;;;;;5056495;28;20442;-88
2021/05/03 02:06:37;;;;;;;10.48;5.47;;;1.20;99.90;;;;;;5039617;28;20208;-87
2021/05/03 02:09:12;;;;;;;6.20;5.20;;;1.20;99.90;;;;;;5072965;28;20180;-87
2021/05/03 02:11:41;;;;;;;8.55;5.07;;;1.20;99.90;;;;;;5074272;28;20664;-86
2021/05/03 02:14:09;;;;;;;7.47;5.55;;;1.20;99.90;;;;;;5074282;28;20180;-84
2021/05/03 02:16:36;;;;;;;7.50;4.65;;;1.20;99.90;;;;;;5072566;28;20657;-86
2021/05/03 02:19:02;;;;;;;6.28;5.10;;;1.20;99.90;;;;;;5039672;28;20189;-85
2021/05/03 02:21:28;;;;;;;7.80;4.78;;;1.20;99.90;;;;;;5056281;28;20184;-85
2021/05/03 02:23:53;;;;;;;7.03;5.90;;;1.20;99.90;;;;;;5056207;28;20178;-84
2021/05/03 02:26:19;;;;;;;7.63;5.53;;;1.10;99.90;;;;;;5055832;28;20193;-84
2021/05/03 02:28:44;;;;;;;7.87;5.93;;;1.10;99.90;;;;;;5072965;28;20637;-85
2021/05/03 02:31:10;;;;;;;12.80;6.40;;;1.10;99.90;;;;;;5072819;28;20196;-85
2021/05/03 02:33:36;;;;;;;6.43;5.37;;;1.10;99.90;;;;;;5073843;28;20168;-84
2021/05/03 02:36:02;;;;;;;6.90;5.30;;;1.10;99.90;;;;;;5073644;28;20188;-85
2021/05/03 02:38:30;;;;;;;7.88;5.90;;;1.00;99.90;;;;;;5072097;28;20677;-84
2021/05/03 02:40:56;;;;;;;8.88;5.47;;;1.00;99.90;;;;;;5072898;28;20297;-85
2021/05/03 02:43:21;;;;;;;7.40;6.17;;;0.90;99.90;;;;;;5073715;28;20633;-84
2021/05/03 02:45:47;;;;;;;8.63;5.77;;;1.00;99.90;;;;;;5072347;28;20711;-85
2021/05/03 02:48:13;;;;;;;9.67;6.60;;;1.00;99.90;;;;;;5055796;28;20208;-85
2021/05/03 02:50:41;;;;;;;8.40;6.23;;;1.00;99.90;;;;;;5072291;28;20454;-85
2021/05/03 02:53:07;;;;;;;7.35;5.93;;;1.00;99.90;;;;;;5072350;28;20173;-85
2021/05/03 02:55:33;;;;;;;11.40;6.80;;;1.00;99.90;;;;;;5072085;28;20169;-85
2021/05/03 02:58:26;;;;;;;7.60;5.70;;;1.00;99.90;;;;;;5073449;28;20199;-85
2021/05/03 03:00:52;;;;;;;8.48;6.25;;;1.00;99.90;;;;;;5072199;28;20509;-85
2021/05/03 03:03:18;;;;;;;8.73;6.90;;;0.90;99.90;;;;;;5073484;28;20205;-85
2021/05/03 03:05:43;;;;;;;8.57;6.50;;;0.90;99.90;;;;;;5073090;28;20442;-85
2021/05/03 03:08:09;;;;;;;7.43;5.90;;;0.90;99.90;;;;;;5073511;28;20175;-85
2021/05/03 03:10:35;;;;;;;8.23;6.07;;;0.90;99.90;;;;;;5055611;28;20196;-84
2021/05/03 03:13:03;;;;;;;8.40;5.90;;;0.80;99.90;;;;;;5072309;28;20168;-84
2021/05/03 03:15:31;;;;;;;6.72;6.03;;;0.80;99.90;;;;;;5071852;28;20184;-84
2021/05/03 03:17:57;;;;;;;10.00;7.00;;;0.80;99.90;;;;;;5072018;28;20165;-85
2021/05/03 03:20:24;;;;;;;8.40;5.70;;;0.70;99.90;;;;;;5055249;28;20223;-84
2021/05/03 03:22:50;;;;;;;9.60;6.90;;;0.70;99.90;;;;;;5071871;28;20271;-84
2021/05/03 03:25:26;;;;;;;7.13;5.87;;;0.60;99.90;;;;;;5071713;28;20649;-84
2021/05/03 03:28:26;;;;;;;6.95;6.25;;;0.60;99.90;;;;;;5071822;28;20212;-84
2021/05/03 03:30:51;;;;;;;7.93;6.35;;;0.60;99.90;;;;;;5073066;28;20200;-85
2021/05/03 03:33:18;;;;;;;7.60;6.80;;;0.60;99.90;;;;;;5073307;28;20643;-84
2021/05/03 03:35:44;;;;;;;8.23;6.20;;;0.60;99.90;;;;;;5055572;28;20747;-85
2021/05/03 03:38:12;;;;;;;11.53;6.63;;;0.50;99.90;;;;;;5073144;28;20177;-85
2021/05/03 03:40:38;;;;;;;8.45;6.82;;;0.50;99.90;;;;;;5073230;28;20177;-85
2021/05/03 03:43:04;;;;;;;7.43;6.50;;;0.60;99.90;;;;;;5071993;28;20187;-84
2021/05/03 03:45:29;;;;;;;10.37;6.90;;;0.60;99.90;;;;;;5072018;28;20183;-85
2021/05/03 03:47:55;;;;;;;13.73;7.00;;;0.60;99.90;;;;;;5072719;28;20623;-85
2021/05/03 03:50:22;;;;;;;9.97;7.50;;;0.60;99.90;;;;;;5084782;28;20211;-83
2021/05/03 03:52:48;;;;;;;9.38;7.07;;;0.60;99.90;;;;;;5085866;28;20175;-85
2021/05/03 03:55:13;;;;;;;10.80;7.33;;;0.60;99.90;;;;;;5085711;28;20195;-85
2021/05/03 03:57:39;;;;;;;9.73;7.37;;;0.60;99.90;;;;;;5082577;28;20679;-85
2021/05/03 04:00:07;;;;;;;10.23;7.20;;;0.60;99.90;;;;;;5075880;28;20211;-84
2021/05/03 04:02:34;;;;;;;7.10;5.93;;;0.60;99.90;;;;;;5075642;28;20446;-84
2021/05/03 04:07:40;;;;;;;9.10;6.13;;;0.60;99.90;;;;;;5076662;28;20188;-84
2021/05/03 04:26:08;;;;;;;10.45;7.10;;;0.50;99.90;;;;;;5055439;28;20561;-85
2021/05/03 04:28:34;;;;;;;10.43;7.80;;;0.60;99.90;;;;;;5056019;28;20185;-85
2021/05/03 04:31:00;;;;;;;10.90;7.97;;;0.60;99.90;;;;;;5071557;28;20673;-84
2021/05/03 04:33:25;;;;;;;11.57;7.90;;;0.70;99.90;;;;;;5056060;28;20197;-85
2021/05/03 04:39:18;;;;;;;11.63;7.20;;;0.70;99.90;;;;;;5039629;28;20673;-85
2021/05/03 04:41:44;;;;;;;10.77;7.78;;;0.80;99.90;;;;;;5056054;28;20173;-84
2021/05/03 04:44:11;;;;;;;11.20;7.93;;;0.90;99.90;;;;;;5054872;28;20661;-84
2021/05/03 04:46:40;;;;;;;7.82;6.88;;;1.00;99.90;;;;;;5068989;28;20208;-84
2021/05/03 04:49:07;;;;;;;10.05;7.72;;;1.10;99.90;;;;;;5075982;28;20214;-84
2021/05/03 04:51:40;;;;;;;9.55;8.07;;;1.30;99.90;;;;;;5074235;28;20661;-85
2021/05/03 04:54:08;;;;;;;11.07;8.65;;;1.40;99.90;;;;;;5059352;28;20236;-84
2021/05/03 04:56:34;;;;;;;12.40;8.73;;;1.50;99.90;;;;;;5073586;28;20612;-84
2021/05/03 04:59:00;;;;;;;10.90;8.57;;;1.60;99.90;;;;;;5075204;28;20176;-86
2021/05/03 05:01:25;;;;;;;9.50;8.20;;;1.70;99.90;;;;;;5074356;28;20175;-85
2021/05/03 05:03:51;;;;;;;10.17;7.67;;;1.90;99.90;;;;;;5057762;28;20180;-85
2021/05/03 05:06:17;;;;;;;10.10;7.47;;;2.00;99.90;;;;;;5073597;28;20204;-85
2021/05/03 05:08:42;;;;;;;9.10;8.20;;;2.10;99.90;;;;;;5075578;28;20196;-85
2021/05/03 05:11:08;;;;;;;14.07;8.17;;;2.20;99.90;;;;;;5057872;28;20674;-84
2021/05/03 05:13:34;;;;;;;11.40;8.33;;;2.20;99.90;;;;;;5073830;28;20427;-85
2021/05/03 05:15:59;;;;;;;13.03;7.67;;;2.30;99.90;;;;;;5075227;28;20199;-84
2021/05/03 05:18:36;;;;;;;10.10;7.70;;;2.30;99.90;;;;;;5075330;28;20169;-86
2021/05/03 05:21:04;;;;;;;10.25;7.32;;;2.30;99.90;;;;;;5073566;28;20559;-85
2021/05/03 05:23:30;;;;;;;12.13;8.60;;;2.40;99.90;;;;;;5057358;28;20183;-85
2021/05/03 05:54:24;;;;;;;10.70;7.07;;;3.30;99.90;;;;;;5197036;22;20267;-84
2021/05/03 05:57:26;;;;;;;10.73;8.05;;;3.20;99.90;;;;;;5068506;22;20308;-86
2021/05/03 06:00:17;;;;;;;7.50;6.70;;;3.30;99.90;;;;;;5039410;28;20730;-85
2021/05/03 06:08:50;;;;;;;13.20;6.72;;;3.50;99.90;;;;;;5393433;22;20228;-86
2021/05/03 06:11:16;;;;;;;7.90;6.38;;;3.50;99.90;;;;;;5054187;28;20189;-85
2021/05/03 06:13:42;;;;;;;12.07;7.43;;;3.60;99.90;;;;;;5036482;28;20177;-86
2021/05/03 06:16:08;;;;;;;10.23;7.60;;;3.60;99.90;;;;;;5036599;28;20207;-85
2021/05/03 06:18:34;;;;;;;7.55;6.75;;;3.70;99.90;;;;;;5054374;28;20195;-87
2021/05/03 06:20:59;;;;;;;6.80;5.87;;;3.80;99.90;;;;;;5052971;28;20177;-85
2021/05/03 06:23:25;;;;;;;9.77;7.50;;;3.80;99.90;;;;;;5052937;28;20408;-85
2021/05/03 06:25:51;;;;;;;7.33;6.50;;;3.90;99.90;;;;;;5057255;28;20606;-87
2021/05/03 06:28:17;;;;;;;8.20;6.83;;;4.00;99.90;;;;;;5052590;28;20216;-87
2021/05/03 06:30:43;;;;;;;8.82;6.70;;;4.10;99.90;;;;;;5054861;28;20261;-90
2021/05/03 06:33:18;;;;;;;8.85;6.78;;;4.10;99.90;;;;;;5055793;28;20170;-86
2021/05/03 06:35:47;;;;;;;12.80;6.82;;;4.30;99.90;;;;;;5053721;28;20309;-85
2021/05/03 06:38:12;;;;;;;7.70;6.80;;;4.40;99.90;;;;;;5055757;28;20227;-86
2021/05/03 06:40:38;;;;;;;6.90;6.20;;;4.50;99.90;;;;;;5055263;28;20176;-86
2021/05/03 06:43:04;;;;;;;7.80;7.00;;;4.50;99.90;;;;;;5053626;28;20983;-85
2021/05/03 06:45:32;;;;;;;12.80;6.80;;;4.60;99.90;;;;;;5036732;28;20446;-89
2021/05/03 06:47:58;;;;;;;7.18;6.30;;;4.70;99.90;;;;;;5036280;28;20222;-87
2021/05/03 06:50:24;;;;;;;7.50;6.80;;;4.80;99.90;;;;;;5053897;28;20205;-85
2021/05/03 06:52:52;;;;;;;8.33;6.87;;;4.80;99.90;;;;;;5056028;28;20180;-86
2021/05/03 06:55:18;;;;;;;10.13;6.75;;;5.00;99.90;;;;;;5058002;28;20760;-87
2021/05/03 06:57:44;;;;;;;7.93;6.53;;;5.10;99.90;;;;;;5054065;28;20266;-84
2021/05/03 07:00:13;;;;;;;9.40;6.10;;;5.20;99.90;;;;;;5052986;28;20170;-88
2021/05/03 07:02:40;;;;;;;6.07;5.47;;;5.30;99.90;;;;;;5059335;28;20727;-92
2021/05/03 07:05:07;;;;;;;8.88;6.53;;;5.30;99.90;;;;;;5060487;28;20267;-90
2021/05/03 07:07:34;;;;;;;8.50;6.20;;;5.60;99.90;;;;;;5033970;28;20209;-87
2021/05/03 07:10:00;;;;;;;8.60;6.70;;;5.80;99.90;;;;;;5063425;28;20257;-85
2021/05/03 07:12:26;;;;;;;8.17;7.20;;;6.00;99.90;;;;;;5057589;28;20622;-86
2021/05/03 07:14:53;;;;;;;8.60;6.20;;;6.20;99.90;;;;;;5042269;28;20184;-88
2021/05/03 07:17:19;;;;;;;6.95;5.78;;;6.30;99.90;;;;;;5044201;28;20255;-88
2021/05/03 07:19:45;;;;;;;9.20;6.40;;;6.30;99.90;;;;;;5041077;28;20177;-86
2021/05/03 07:22:14;;;;;;;6.80;4.68;;;6.50;99.90;;;;;;5052543;28;20908;-87
2021/05/03 07:24:40;;;;;;;8.35;5.10;;;6.70;99.90;;;;;;5053107;28;20174;-87
2021/05/03 07:27:10;;;;;;;4.00;3.58;;;6.80;99.90;;;;;;5055144;28;20209;-85
2021/05/03 07:29:37;;;;;;;10.88;5.30;;;6.90;99.90;;;;;;5052137;28;20177;-85
2021/05/03 07:32:04;;;;;;;5.65;4.55;;;6.90;99.90;;;;;;5053341;28;20224;-86
2021/05/03 07:34:29;;;;;;;5.45;4.95;;;7.20;99.90;;;;;;5054583;28;20248;-89
2021/05/03 07:36:55;;;;;;;6.03;5.17;;;7.30;99.90;;;;;;5054259;28;20694;-86
2021/05/03 07:39:21;;;;;;;4.90;3.93;;;7.50;99.90;;;;;;5052434;28;20174;-85
2021/05/03 07:41:47;;;;;;;6.17;5.20;;;7.70;99.90;;;;;;5054018;28;20695;-85
2021/05/03 07:44:12;;;;;;;5.73;4.30;;;7.70;99.90;;;;;;5052111;28;20952;-85
2021/05/03 07:46:38;;;;;;;7.03;4.10;;;7.90;99.90;;;;;;5037036;28;20227;-87
2021/05/03 07:49:05;;;;;;;3.40;3.10;;;8.20;99.90;;;;;;5052303;28;20181;-83
2021/05/03 07:51:32;;;;;;;5.43;3.63;;;8.60;99.90;;;;;;5051897;28;20531;-83
2021/05/03 07:53:59;;;;;;;7.57;4.20;;;8.80;99.90;;;;;;5052146;28;20626;-83
2021/05/03 07:56:26;;;;;;;5.45;3.47;;;9.00;99.90;;;;;;5051482;28;20232;-82
2021/05/03 07:58:51;;;;;;;5.50;3.05;;;9.10;99.90;;;;;;5051681;28;20182;-84
2021/05/03 08:01:17;;;;;;;5.13;3.60;;;9.30;99.90;;;;;;5035350;28;20177;-85
2021/05/03 08:03:43;;;;;;;3.88;3.38;;;9.70;99.90;;;;;;5053112;28;20169;-85
2021/05/03 08:06:14;;;;;;;4.40;2.67;;;9.80;99.90;;;;;;5051278;28;20240;-83
2021/05/03 08:08:45;;;;;;;4.70;2.50;;;10.00;99.90;;;;;;5051366;28;20797;-84
2021/05/03 08:11:12;;;;;;;5.77;2.60;;;10.40;99.90;;;;;;5051445;28;20814;-85
2021/05/03 08:13:39;;;;;;;4.17;2.87;;;10.60;99.90;;;;;;5052889;28;20394;-84
2021/05/03 08:16:08;;;;;;;4.43;2.60;;;10.40;99.90;;;;;;5052388;28;20428;-83
2021/05/03 08:18:34;;;;;;;6.33;3.10;;;10.80;99.90;;;;;;5052732;28;20824;-85
2021/05/03 08:20:59;;;;;;;3.30;2.93;;;10.90;99.90;;;;;;5052625;28;20491;-85
2021/05/03 08:23:26;;;;;;;6.23;3.60;;;11.00;99.90;;;;;;5051480;28;20421;-83
2021/05/03 08:25:54;;;;;;;7.30;4.13;;;10.90;99.90;;;;;;5052308;28;20205;-86
2021/05/03 08:28:21;;;;;;;4.90;3.40;;;10.90;99.90;;;;;;5051512;28;20420;-84
2021/05/03 08:30:49;;;;;;;4.93;3.70;;;11.10;99.90;;;;;;5034733;28;20801;-86
2021/05/03 08:33:15;;;;;;;7.70;3.70;;;10.90;99.90;;;;;;5051328;28;20813;-86
2021/05/03 08:35:41;;;;;;;5.07;4.00;;;11.20;99.90;;;;;;5051581;28;20394;-86
2021/05/03 08:38:07;;;;;;;12.40;4.13;;;11.40;99.90;;;;;;5038380;28;20420;-85
2021/05/03 08:40:34;;;;;;;6.97;4.40;;;11.50;99.90;;;;;;5056329;28;20424;-79
2021/05/03 08:43:03;;;;;;;7.37;4.43;;;11.90;99.90;;;;;;5054605;28;20498;-86
2021/05/03 08:45:30;;;;;;;5.40;4.30;;;11.40;99.90;;;;;;5021997;28;20886;-86
2021/05/03 08:50:52;;;;;;;8.07;4.40;;;11.70;99.90;;;;;;5055732;28;20826;-88
2021/05/03 08:54:08;;;;;;;6.27;4.17;;;11.60;99.90;;;;;;5054570;28;20379;-87
2021/05/03 08:56:11;;;;;;;5.43;3.90;;;11.60;99.90;;;;;;5052361;28;20431;-82
2021/05/03 08:58:39;;;;;;;5.80;4.63;;;11.60;99.90;;;;;;5054632;28;20378;-87
2021/05/03 09:01:05;;;;;;;8.53;5.93;;;11.90;99.90;;;;;;5055705;28;20407;-85
2021/05/03 09:03:33;;;;;;;7.37;6.60;;;12.30;99.90;;;;;;5055428;28;20414;-82
2021/05/03 09:06:04;;;;;;;9.03;5.20;;;12.30;99.90;;;;;;5055367;28;20877;-84
2021/05/03 09:08:31;;;;;;;6.03;5.00;;;12.30;99.90;;;;;;5054143;28;20523;-84
2021/05/03 09:10:57;;;;;;;6.47;4.20;;;12.70;99.90;;;;;;5037758;28;20442;-85
2021/05/03 09:13:34;;;;;;;5.53;4.70;;;12.70;99.90;;;;;;5055443;28;20375;-86
2021/05/03 09:16:22;;;;;;;8.20;4.27;;;12.60;99.90;;;;;;5055129;28;20523;-86
2021/05/03 09:18:49;;;;;;;7.67;4.50;;;13.00;99.90;;;;;;5055607;28;20389;-83
2021/05/03 09:21:23;;;;;;;6.90;4.30;;;12.80;99.90;;;;;;5053975;28;20424;-88
2021/05/03 09:24:05;;;;;;;6.43;5.00;;;13.20;99.90;;;;;;5054160;28;20391;-85
2021/05/03 09:26:47;;;;;;;6.23;4.10;;;12.90;99.90;;;;;;5053658;28;20406;-84
2021/05/03 09:29:39;;;;;;;5.90;4.73;;;12.90;99.90;;;;;;5053915;28;20465;-87
2021/05/03 09:32:32;;;;;;;5.37;4.83;;;13.20;99.90;;;;;;5053896;28;20456;-86
2021/05/03 09:34:57;;;;;;;5.47;4.27;;;13.10;99.90;;;;;;5055085;28;20841;-85
2021/05/03 09:37:38;;;;;;;5.60;4.50;;;13.00;99.90;;;;;;5054141;28;20455;-87
2021/05/03 09:40:18;;;;;;;5.90;4.20;;;12.90;99.20;;;;;;5018905;28;20638;-84
2021/05/03 09:42:54;;;;;;;4.40;4.00;;;12.70;96.40;;;;;;5035467;28;20380;-84
2021/05/03 09:45:25;;;;;;;5.83;5.10;;;12.40;98.20;;;;;;5049041;28;20499;-85
2021/05/03 09:47:53;;;;;;;4.53;4.17;;;12.60;99.70;;;;;;5053181;28;20469;-82
2021/05/03 09:50:21;;;;;;;10.13;5.33;;;13.00;97.60;;;;;;5053504;28;20483;-83
2021/05/03 09:53:13;;;;;;;5.90;4.40;;;13.10;96.10;;;;;;5054792;28;20883;-84
2021/05/03 09:55:57;;;;;;;6.93;4.93;;;12.90;96.90;;;;;;5036618;28;20383;-84
2021/05/03 09:58:25;;;;;;;5.30;4.10;;;13.00;96.90;;;;;;5053347;28;20917;-82
2021/05/03 10:00:56;;;;;;;5.37;4.37;;;13.50;98.10;;;;;;5054618;28;20386;-83
2021/05/03 10:03:46;;;;;;;5.37;4.83;;;14.20;99.50;;;;;;5054019;28;20412;-84
2021/05/03 10:06:18;;;;;;;5.10;3.73;;;13.90;93.10;;;;;;5050161;28;20421;-89
2021/05/03 10:08:49;;;;;;;6.10;4.80;;;13.00;92.50;;;;;;5057503;28;20829;-86
2021/05/03 10:11:16;;;;;;;4.60;4.03;;;13.00;95.60;;;;;;5057490;28;20478;-88
2021/05/03 10:13:44;;;;;;;4.83;4.17;;;13.00;96.30;;;;;;5057518;28;20802;-85
2021/05/03 10:16:10;;;;;;;6.53;4.73;;;12.70;94.00;;;;;;5054768;28;20406;-87
2021/05/03 10:18:59;;;;;;;5.50;4.67;;;13.20;94.70;;;;;;5055957;28;20497;-87
2021/05/03 10:21:25;;;;;;;5.83;4.47;;;13.30;95.10;;;;;;5056241;28;20717;-84
2021/05/03 10:23:52;;;;;;;5.00;3.67;;;13.40;92.40;;;;;;5057447;28;20516;-81
2021/05/03 10:26:18;;;;;;;4.63;3.93;;;13.80;94.10;;;;;;5053603;28;20209;-79
2021/05/03 10:28:55;;;;;;;5.83;4.37;;;14.20;92.90;;;;;;5052637;28;20406;-81
2021/05/03 10:31:22;;;;;;;5.13;4.63;;;14.30;91.20;;;;;;5053928;28;20458;-84
2021/05/03 10:33:48;;;;;;;5.47;4.80;;;14.30;91.40;;;;;;5035774;28;20397;-79
2021/05/03 10:36:37;;;;;;;7.43;4.50;;;14.20;90.50;;;;;;5052098;28;20925;-83
2021/05/03 10:39:28;;;;;;;7.70;4.60;;;14.50;91.20;;;;;;5052610;28;20411;-84
2021/05/03 10:42:07;;;;;;;11.80;4.17;;;14.80;91.00;;;;;;5033791;28;20395;-86
2021/05/03 10:44:35;;;;;;;4.10;3.80;;;14.70;86.70;;;;;;5053417;28;20412;-86
2021/05/03 10:47:21;;;;;;;4.70;3.90;;;14.50;90.10;;;;;;5053726;28;20500;-84
2021/05/03 10:49:48;;;;;;;5.27;4.47;;;14.70;88.90;;;;;;5036725;28;20495;-83
2021/05/03 10:52:17;;;;;;;6.43;4.77;;;14.30;85.60;;;;;;5052378;28;20865;-82
2021/05/03 10:54:51;;;;;;;4.57;4.17;;;14.10;86.10;;;;;;5051717;28;20798;-86
2021/05/03 10:57:36;;;;;;;5.40;3.70;;;14.30;88.40;;;;;;5053736;28;20477;-82
2021/05/03 11:00:08;;;;;;;5.50;4.70;;;14.40;86.60;;;;;;5041089;28;20379;-82
2021/05/03 11:02:41;;;;;;;7.87;5.03;;;14.30;86.40;;;;;;5053554;28;20400;-83
2021/05/03 11:05:25;;;;;;;7.00;4.87;;;14.20;87.00;;;;;;5053062;28;20892;-81
2021/05/03 11:08:03;;;;;;;7.20;5.17;;;14.30;90.30;;;;;;5053414;28;20704;-85
2021/05/03 11:10:57;;;;;;;6.03;4.87;;;14.20;87.90;;;;;;5053125;28;20422;-82
2021/05/03 11:13:48;;;;;;;6.70;5.23;;;14.00;89.50;;;;;;5033266;28;20405;-83
2021/05/03 11:16:26;;;;;;;5.33;4.90;;;14.10;88.60;;;;;;5038575;28;20775;-83
2021/05/03 11:18:54;;;;;;;6.07;5.43;;;13.90;90.40;;;;;;5051559;28;20412;-84
2021/05/03 11:21:44;;;;;;;10.53;5.70;;;13.70;90.00;;;;;;5051678;28;20391;-84
2021/05/03 11:24:24;;;;;;;5.73;4.80;;;13.80;92.20;;;;;;5051853;28;20487;-84
2021/05/03 11:29:30;;;;;;;5.83;5.20;;;13.80;92.10;;;;;;5053467;28;20416;-82
2021/05/03 11:31:56;;;;;;;6.90;5.17;;;13.70;93.20;;;;;;5053164;28;21037;-84
2021/05/03 11:34:41;;;;;;;5.27;4.30;;;13.50;92.70;;;;;;5053010;28;20407;-83
2021/05/03 11:37:15;;;;;;;6.17;5.00;;;13.40;92.70;;;;;;5040450;28;20199;-81
2021/05/03 11:45:06;;;;;;;4.80;4.30;;;13.60;90.60;;;;;;5049724;28;20450;-82
2021/05/03 11:47:41;;;;;;;4.63;4.13;;;13.40;88.50;;;;;;5051938;28;20859;-84
2021/05/03 11:50:08;;;;;;;4.43;4.00;;;13.40;89.10;;;;;;5035802;28;20501;-82
2021/05/03 11:52:36;;;;;;;4.73;4.30;;;13.90;89.90;;;;;;5051649;28;20426;-81
2021/05/03 11:55:09;;;;;;;4.43;4.00;;;14.50;86.40;;;;;;5053036;28;20470;-83
2021/05/03 11:57:41;;;;;;;5.33;3.60;;;15.10;83.40;;;;;;5053147;28;20955;-83
2021/05/03 12:00:09;;;;;;;3.60;3.00;;;15.10;80.90;;;;;;5055338;28;20440;-80
2021/05/03 12:02:35;;;;;;;9.90;3.40;;;14.70;76.50;;;;;;5052742;28;20415;-82
2021/05/03 12:05:01;;;;;;;4.27;3.30;;;14.60;74.20;;;;;;5052573;28;20408;-81
2021/05/03 12:07:32;;;;;;;4.00;3.53;;;14.50;75.40;;;;;;5052717;28;20478;-81
2021/05/03 12:10:08;;;;;;;4.80;3.40;;;14.00;74.10;;;;;;5053728;28;20722;-81
2021/05/03 12:12:35;;;;;;;4.13;3.73;;;14.00;75.90;;;;;;5056603;28;20423;-79
2021/05/03 12:15:02;;;;;;;6.10;4.43;;;14.20;81.40;;;;;;5056269;28;20393;-81
2021/05/03 12:17:30;;;;;;;5.20;4.60;;;14.00;84.90;;;;;;5057013;28;20744;-82
2021/05/03 12:20:03;;;;;;;5.30;4.40;;;14.10;86.60;;;;;;5056997;28;20424;-84
2021/05/03 12:22:29;;;;;;;6.93;4.50;;;14.10;84.60;;;;;;5056411;28;20416;-80
2021/05/03 12:25:09;;;;;;;4.90;4.33;;;14.00;84.80;;;;;;5057920;28;20502;-81
2021/05/03 12:27:36;;;;;;;4.70;4.07;;;14.10;82.50;;;;;;5054924;28;20470;-81
2021/05/03 12:30:06;;;;;;;3.60;3.17;;;14.80;83.70;;;;;;5038353;28;20463;-80
2021/05/03 12:32:35;;;;;;;4.07;3.63;;;15.10;81.30;;;;;;5056565;28;20411;-82
2021/05/03 12:35:09;;;;;;;3.20;2.77;;;15.20;79.90;;;;;;5055187;28;20422;-80
2021/05/03 12:37:36;;;;;;;4.20;3.60;;;15.50;77.10;;;;;;5056291;28;20981;-79
2021/05/03 12:40:07;;;;;;;3.40;3.10;;;15.10;74.10;;;;;;5057022;28;20419;-81
2021/05/03 12:42:53;;;;;;;3.83;3.53;;;14.70;75.30;;;;;;5054877;28;20402;-83
2021/05/03 12:45:41;;;;;;;3.23;2.80;;;15.00;77.10;;;;;;5056665;28;20820;-82
2021/05/03 12:57:02;;;;;;;3.90;3.47;;;15.20;71.70;;;;;;5036982;28;20435;-83
2021/05/03 13:02:49;;;;;;;3.90;3.50;;;15.80;73.30;;;;;;5056043;28;20383;-80
2021/05/03 13:05:23;;;;;;;8.00;3.07;;;15.20;73.90;;;;;;5055385;28;20494;-84
2021/05/03 13:24:47;;;;;;;3.40;3.00;;;15.10;76.90;;;;;;5055633;28;20403;-78
2021/05/03 13:30:18;;;;;;;3.73;2.73;;;14.60;79.20;;;;;;5055301;28;20787;-80
2021/05/03 13:32:43;;;;;;;3.47;3.17;;;14.50;77.40;;;;;;5053886;28;20422;-80
2021/05/03 13:35:10;;;;;;;4.23;3.43;;;14.20;74.90;;;;;;5053678;28;20916;-82
2021/05/03 13:37:36;;;;;;;3.80;3.30;;;14.40;73.80;;;;;;5053267;28;20193;-82
2021/05/03 13:40:03;;;;;;;4.67;2.67;;;14.60;76.30;;;;;;5053691;28;20479;-81
2021/05/03 13:42:28;;;;;;;3.53;3.20;;;14.80;77.90;;;;;;5054922;28;20181;-81
2021/05/03 13:44:54;;;;;;;5.50;3.07;;;14.60;75.40;;;;;;5054419;28;20383;-82
2021/05/03 13:47:19;;;;;;;4.30;3.20;;;14.50;76.20;;;;;;5054703;28;20201;-80
2021/05/03 13:49:45;;;;;;;11.40;3.20;;;14.40;76.80;;;;;;5053281;28;20201;-82
2021/05/03 13:52:11;;;;;;;3.07;2.77;;;14.40;78.20;;;;;;5033078;28;20202;-82
2021/05/03 13:54:36;;;;;;;3.30;2.90;;;15.00;77.70;;;;;;5032970;28;20221;-83
2021/05/03 13:57:05;;;;;;;5.43;3.00;;;15.10;77.20;;;;;;5033438;28;20200;-79
2021/05/03 13:59:31;;;;;;;4.10;3.30;;;15.40;75.50;;;;;;5033251;28;20541;-77
2021/05/03 14:01:58;;;;;;;3.77;3.03;;;15.00;75.20;;;;;;5034378;28;20409;-82
2021/05/03 14:04:24;;;;;;;3.17;2.83;;;15.10;75.40;;;;;;5034559;28;20474;-81
2021/05/03 14:06:49;;;;;;;4.13;3.13;;;15.20;76.20;;;;;;5016619;28;20511;-80
2021/05/03 14:09:15;;;;;;;3.83;3.30;;;15.40;75.10;;;;;;5034358;28;20436;-80
2021/05/03 14:11:42;;;;;;;2.80;2.60;;;15.70;72.80;;;;;;5034211;28;20212;-80
2021/05/03 14:14:08;;;;;;;5.03;3.57;;;15.90;74.20;;;;;;5034223;28;20390;-78
2021/05/03 14:16:36;;;;;;;3.77;3.47;;;16.00;75.20;;;;;;5049350;28;20892;-80
2021/05/03 14:19:06;;;;;;;3.80;3.50;;;15.90;74.10;;;;;;5033335;28;20401;-81
2021/05/03 14:21:32;;;;;;;3.30;3.00;;;15.60;73.70;;;;;;5034201;28;20384;-79
2021/05/03 14:23:58;;;;;;;3.20;2.80;;;15.50;76.00;;;;;;5033916;28;20450;-80
2021/05/03 14:26:25;;;;;;;2.73;2.50;;;15.30;73.50;;;;;;5033468;28;20235;-80
2021/05/03 14:28:57;;;;;;;3.83;3.03;;;15.20;73.10;;;;;;5032939;28;20480;-79
2021/05/03 14:31:27;;;;;;;2.43;2.23;;;15.00;74.60;;;;;;5049353;28;20423;-81
2021/05/03 14:34:04;;;;;;;3.33;2.70;;;15.00;77.30;;;;;;5032392;28;20904;-79
2021/05/03 14:36:30;;;;;;;3.30;2.40;;;15.20;75.50;;;;;;5032408;28;20814;-79
2021/05/03 14:38:55;;;;;;;6.57;2.50;;;15.60;76.00;;;;;;5034174;28;20387;-80
2021/05/03 14:41:21;;;;;;;3.47;2.43;;;15.40;73.40;;;;;;5033880;28;20421;-80